Philadelphia, Pennsylvania
Traffic Map
Current Weather Conditions
Philadelphia, Pennsylvania
Overcast
Overcast
33°
Feels Like: 27°
Wind Chill: 27° Ceiling: 6500
Heat Index: 33° Visibility: 10mi
Dew Point: 22° Wind: 7mph
Humidity: 64% Direction: 280° (W)
Pressure: 30.07in Gusts: 0mph
Raw Report DataKPHL 120854Z 28006KT 10SM OVC065 01/M06 A3007 RMK AO2 SLP182 T00061056 52014 $
Traffic Incident Summary
Active as of:
Severity:
Category:
InformationThere was an issue retrieving the traffic information for this location. Please try a different location or try again shortly.
Advertisements